Davenport Municipal, IA

9:07 AM CDT on August 21, 2014 (GMT -0500)
Muscatine Municipal | Change Station
CLOSE
Current Station
Airport
Location: Muscatine,
Elevation: 548 ft
Nearby Weather Stations

Elev 548 ft 41.37 °N, 91.14 °W | Updated 12 minutes ago

Clear
Clear
77 °F
Feels Like 77 °F
N
8
Wind Variable Wind from South

Today
High -- | Low -- °F
--% Chance of Precip.
Yesterday
High -- | Low -- °F
Precip. -- in
6:17 AM 7:53 PM
Waning Crescent, 14% visible
Pressure 29.89 in
Visibility 10.0 miles
Clouds Clear
Dew Point 72 °F
Humidity 83%
Rainfall 0.00 in
Snow Depth Not available.
UV 3 out of 12
Pollen 8.00 out of 12
Air Quality Not available.
Flu Activity Not available.
METAR KMUT 211355Z AUTO 18007KT 10SM CLR 25/22 A2989 RMK AO2

More Conditions Fewer Conditions

Pressure 29.89 in
Visibility 10.0 miles
Clouds Clear
Dew Point 72 °F
Humidity 83%
Rainfall 0.00 in
Snow Depth Not available.
UV 3 out of 12
Pollen 8.00 out of 12
Air Quality Not available.
Flu Activity Not available.
METAR KMUT 211355Z AUTO 18007KT 10SM CLR 25/22 A2989 RMK AO2

More Conditions Fewer Conditions

10-Day Weather Forecast

Almanac

Astronomy

Aug. 21, 2014 Rise Set
Actual Time 6:17 AM CDT 7:53 PM CDT
Civil Twilight 5:47 AM CDT 8:22 PM CDT
Nautical Twilight 5:12 AM CDT 8:57 PM CDT
Astronomical Twilight 4:34 AM CDT 9:35 PM CDT
Moon 2:46 AM CDT 5:23 PM CDT
Length of Visible Light 14h 34m
Length of Day
13h 35m
Tomorrow will be 2m 34s shorter.
Waning Crescent, 14% of the Moon is Illuminated
Today
Waning Crescent
Aug 25
New
Sep 2
First Quarter
Sep 8
Full
Sep 15
Last Quarter

Today's Extremes

State Highs State Lows

Community

WunderPhotos

Upload Photos

1,745,925 photos uploaded!

WunderBlogs® & News

Nearby

Snow Depth

Station Depth Elevation
No new snow has been reported.

Earthquake Activity

City Distance Mag. Time & Date
No recent earthquake activity has been reported nearby.
Minimum magnitude displayed is 2.5.

Coastal Water Temperatures

Place Temperature
No Stations Reporting

Nearby Weather Stations